Terminal Aerodrome Forecast
Issued by NWS Upton, NY

Home | Current Version | Previous Version | Text Only | Print | Product List | Glossary On
Versions: 1 2 3 4 5 6 7 8 9 10 11 12 13 14 15 16 17 18 19 20 21 22 23 24 25 26 27 28 29 30 31 32 33 34
000
FTUS41 KOKX 280300 AAB
TAFJFK
TAF AMD
KJFK 280300Z 2803/2906 20012KT P6SM FEW040 SCT080
     FM280700 19007KT 5SM BR SCT012
     FM281000 19007KT 5SM BR BKN012
     FM281600 19014KT P6SM SCT025 BKN200
     FM281800 19016G24KT P6SM FEW025 BKN040
     FM290000 29010KT P6SM FEW100=

USA.gov is the U.S. government's official web portal to all federal, state and local government web resources and services.